Pagina principale
METAR-TAF:

METAR-TAF

Aeroporti :

Aeroporto di Roma-Ciampino

Roma Ciampino, Italia

latitudine: 41-47N, longitudine: 012-35E, altezza: 129 m

Osservazione

Il bollettino è stato emesso 17 minuti fa, alle 20:50 UTC
Vento 4 kt da est/sud-est
Temperature 20°C
Umidità 64%
Pressione 1018 hPa
Visibilità 10 km o più
nessuna nube inferiore a 1500 m e nessun cumulonembo

METAR: LIRA 162050Z 11004KT CAVOK 20/13 Q1018

Ora: 23:07 (21:07 UTC)

Previsione

Il bollettino è stato emesso 4 ore e 7 minuti fa, alle 17:00 UTC
Previsione valida dal 16 alle 18 UTC al 17 alle 18 UTC
Vento 4 kt da direzioni variabili
Visibilità 10 km o più
nessuna nube inferiore a 1500 m e nessun cumulonembo
Evoluzione graduale
dal 17 alle 10 UTC al 17 alle 12 UTC
Vento 10 kt da ovest/sud-ovest

TAF: LIRA 161700Z 1618/1718 VRB04KT CAVOK BECMG 1710/1712 24010KT

Osservazioni e previsioni meteorologiche di più di 4000 aeroporti (messaggi METAR e TAF).

Le stazioni disponibili sono rappresentate dai dischi gialli e rossi sulla carta.

Puntare il mouse per vedere il nome della stazione.

Clicca sopra per visualizzare le osservazioni e previsioni meteorologiche.

Per cambiare la mappa : fare clic sui pulsanti verdi con una croce nera per ingrandire, il pulsante verde con un trattino per diminuire, o sulla freccia verde per le mappe adiacenti.


METAR-TAF: